Time;durP1;ratioP1;P1;durP2;ratioP2;P2;SDS_P1;SDS_P2;PMS_P1;PMS_P2;Temp;Humidity;BMP_temperature;BMP_pressure;BME280_temperature;BME280_humidity;BME280_pressure;Samples;Min_cycle;Max_cycle;Signal;HPM_P1;HPM_P2
2022/07/24 00:01:24;;;;;;;;;14.75;14.75;;;;;21.90;59.90;101191.28;4993441;28;45850;-78
2022/07/24 00:03:49;;;;;;;;;17.50;12.75;;;;;21.83;59.84;101190.75;4993546;28;45592;-78
2022/07/24 00:06:15;;;;;;;;;17.75;16.25;;;;;21.80;60.10;101186.44;4993694;28;45475;-77
2022/07/24 00:08:40;;;;;;;;;12.75;12.25;;;;;21.77;60.22;101189.28;4992399;28;45429;-77
2022/07/24 00:11:07;;;;;;;;;19.00;15.00;;;;;21.77;60.40;101194.69;4994589;28;45411;-76
2022/07/24 00:13:32;;;;;;;;;19.50;14.00;;;;;21.74;60.23;101183.19;4993040;28;45417;-76
2022/07/24 00:15:58;;;;;;;;;18.25;15.75;;;;;21.73;60.12;101195.78;4998363;28;45309;-76
2022/07/24 00:18:23;;;;;;;;;17.50;15.00;;;;;21.55;60.37;101173.50;4995335;28;46244;-77
2022/07/24 00:20:49;;;;;;;;;14.25;14.00;;;;;21.68;60.24;101208.63;4997893;28;45384;-77
2022/07/24 00:23:14;;;;;;;;;14.00;12.25;;;;;21.64;60.34;101199.88;4997884;28;45376;-77
2022/07/24 00:25:39;;;;;;;;;21.00;15.75;;;;;21.62;60.44;101199.09;5014335;28;45455;-76
2022/07/24 00:28:05;;;;;;;;;15.25;11.50;;;;;21.60;60.55;101194.75;5017957;28;46168;-76
2022/07/24 00:30:30;;;;;;;;;17.50;15.00;;;;;21.56;60.88;101190.50;5002672;28;45471;-76
2022/07/24 00:32:56;;;;;;;;;14.00;14.00;;;;;21.55;60.88;101194.16;4999163;28;45307;-77
2022/07/24 00:35:21;;;;;;;;;17.25;15.50;;;;;21.45;60.66;101181.19;4997902;28;45321;-76
2022/07/24 00:37:47;;;;;;;;;15.50;14.00;;;;;21.47;60.79;101178.44;4995387;28;46639;-77
2022/07/24 00:40:15;;;;;;;;;18.00;16.75;;;;;21.51;60.84;101179.16;4996545;28;45449;-76
2022/07/24 00:42:40;;;;;;;;;18.25;14.50;;;;;21.42;60.70;101159.88;4996879;28;45463;-76
2022/07/24 00:45:07;;;;;;;;;17.00;14.75;;;;;21.51;60.59;101166.56;4995886;28;45634;-77
2022/07/24 00:47:32;;;;;;;;;15.75;14.00;;;;;21.52;60.62;101162.06;4997528;28;45498;-77
2022/07/24 00:49:57;;;;;;;;;14.00;12.50;;;;;21.45;60.47;101135.50;4995884;28;45354;-76
2022/07/24 00:52:23;;;;;;;;;21.75;19.25;;;;;21.44;60.41;101135.59;4977353;28;45438;-76
2022/07/24 00:54:48;;;;;;;;;14.00;12.00;;;;;21.48;60.58;101146.06;4996881;28;45574;-76
2022/07/24 00:57:15;;;;;;;;;18.00;13.00;;;;;21.46;60.63;101142.59;5016229;28;45463;-77
2022/07/24 00:59:40;;;;;;;;;14.75;13.25;;;;;21.44;60.01;101146.34;5001386;28;45583;-77
2022/07/24 01:02:06;;;;;;;;;14.75;14.00;;;;;21.42;60.58;101141.03;4977717;28;45830;-75
2022/07/24 01:04:31;;;;;;;;;17.25;16.75;;;;;21.40;60.72;101137.56;5000480;28;45427;-78
2022/07/24 01:06:58;;;;;;;;;14.50;12.00;;;;;21.34;60.67;101121.78;4994503;28;46196;-76
2022/07/24 01:09:24;;;;;;;;;13.25;12.75;;;;;21.38;60.88;101128.72;4994995;28;45532;-77
2022/07/24 01:11:51;;;;;;;;;13.50;12.25;;;;;21.42;60.93;101141.03;4996292;28;45508;-77
2022/07/24 01:14:17;;;;;;;;;18.00;17.00;;;;;21.39;61.03;101135.84;4999277;28;45380;-77
2022/07/24 01:16:43;;;;;;;;;12.25;12.25;;;;;21.36;60.72;101136.00;4996853;28;46117;-79
2022/07/24 01:19:08;;;;;;;;;18.25;15.25;;;;;21.26;60.86;101118.66;4995258;28;45355;-76
2022/07/24 01:21:34;;;;;;;;;16.75;13.00;;;;;21.36;60.83;101141.38;5010089;28;45474;-75
2022/07/24 01:23:59;;;;;;;;;16.75;14.75;;;;;21.36;60.66;101153.94;5013544;28;45783;-77
2022/07/24 01:26:24;;;;;;;;;16.25;16.25;;;;;21.34;60.79;101159.41;5016843;28;46134;-76
2022/07/24 01:28:50;;;;;;;;;16.50;14.00;;;;;21.30;60.79;101164.09;4999737;28;45372;-77
2022/07/24 01:31:15;;;;;;;;;17.50;15.00;;;;;21.29;60.72;101156.97;4994434;28;45340;-77
2022/07/24 01:33:41;;;;;;;;;15.50;13.75;;;;;21.25;60.66;101165.31;4996318;28;45503;-77
2022/07/24 01:36:06;;;;;;;;;16.75;15.50;;;;;21.12;60.80;101146.31;4993413;28;45479;-76
2022/07/24 01:38:33;;;;;;;;;11.75;11.75;;;;;21.16;60.80;101161.31;4995250;28;45365;-77
2022/07/24 01:40:59;;;;;;;;;9.75;8.50;;;;;21.14;60.93;101151.59;4994170;28;45453;-75
2022/07/24 01:43:24;;;;;;;;;13.50;12.75;;;;;21.12;60.80;101152.56;4995340;28;45479;-77
2022/07/24 01:45:49;;;;;;;;;14.00;14.00;;;;;21.13;60.81;101158.78;4995851;28;46133;-76
2022/07/24 01:48:16;;;;;;;;;15.75;13.50;;;;;21.12;60.83;101159.75;4995722;28;45439;-77
2022/07/24 01:50:42;;;;;;;;;16.50;15.75;;;;;21.08;60.86;101148.28;4996236;28;45426;-75
2022/07/24 01:53:07;;;;;;;;;16.75;14.50;;;;;21.09;61.11;101149.19;4995572;28;45405;-75
2022/07/24 01:55:34;;;;;;;;;14.00;12.00;;;;;21.09;60.93;101150.03;4997214;28;45435;-76
2022/07/24 01:57:59;;;;;;;;;13.00;13.00;;;;;21.09;60.86;101151.88;4996525;28;45430;-76
2022/07/24 02:00:25;;;;;;;;;12.75;12.50;;;;;21.08;61.25;101147.44;4993916;28;45562;-77
2022/07/24 02:02:51;;;;;;;;;13.75;13.50;;;;;20.99;61.14;101134.50;5010184;28;45561;-77
2022/07/24 02:05:16;;;;;;;;;14.50;14.00;;;;;21.01;61.28;101151.41;4995937;28;45489;-75
2022/07/24 02:07:43;;;;;;;;;15.50;12.50;;;;;20.97;61.22;101139.97;5013265;28;45529;-76
2022/07/24 02:10:11;;;;;;;;;15.00;13.00;;;;;20.94;61.30;101151.75;4995373;28;45390;-75
2022/07/24 02:12:37;;;;;;;;;16.00;16.00;;;;;20.88;61.42;101135.94;4995255;28;45379;-77
2022/07/24 02:15:03;;;;;;;;;12.75;11.75;;;;;20.88;61.56;101135.09;4995541;28;45457;-77
2022/07/24 02:17:29;;;;;;;;;12.50;8.75;;;;;20.75;61.47;101119.63;5027913;28;45442;-76
2022/07/24 02:19:54;;;;;;;;;12.50;11.75;;;;;20.83;61.50;101138.03;5001879;28;45444;-75
2022/07/24 02:22:19;;;;;;;;;17.25;16.50;;;;;20.80;61.50;101131.94;5013283;28;45341;-77
2022/07/24 02:24:45;;;;;;;;;15.00;14.00;;;;;20.73;61.55;101126.91;5015038;28;45392;-77
2022/07/24 02:27:10;;;;;;;;;16.25;15.50;;;;;20.69;61.72;101117.25;5015056;28;45375;-76
2022/07/24 02:29:36;;;;;;;;;11.25;11.25;;;;;20.67;61.66;101121.88;5012194;28;45343;-76
2022/07/24 02:32:01;;;;;;;;;14.75;14.25;;;;;20.65;61.80;101126.47;5015819;28;45451;-76
2022/07/24 02:34:27;;;;;;;;;14.25;12.75;;;;;20.59;61.79;101114.19;5001457;28;48152;-76
2022/07/24 02:36:52;;;;;;;;;17.25;14.50;;;;;20.50;61.95;101101.25;4995369;28;45412;-76
2022/07/24 02:39:17;;;;;;;;;15.00;12.00;;;;;20.59;61.91;101118.72;4994366;28;45490;-76
2022/07/24 02:41:43;;;;;;;;;12.25;10.50;;;;;20.59;62.14;101119.56;4993666;28;45443;-80
2022/07/24 02:44:08;;;;;;;;;13.50;12.00;;;;;20.50;61.61;101106.63;5009998;28;46966;-76
2022/07/24 02:46:33;;;;;;;;;11.00;11.00;;;;;20.45;61.67;101110.50;4994845;28;45456;-76
2022/07/24 02:48:59;;;;;;;;;15.25;12.25;;;;;20.51;61.57;101111.06;4994911;28;45537;-75
2022/07/24 02:51:24;;;;;;;;;12.25;11.50;;;;;20.50;61.47;101108.47;4993476;28;45697;-76
2022/07/24 02:53:50;;;;;;;;;13.50;9.00;;;;;20.45;61.45;101097.09;5009429;28;45416;-76
2022/07/24 02:56:15;;;;;;;;;13.50;11.50;;;;;20.37;61.25;101094.81;4994605;28;45543;-76
2022/07/24 02:58:40;;;;;;;;;15.25;14.00;;;;;20.40;61.38;101098.19;4994970;28;45416;-76
2022/07/24 03:01:06;;;;;;;;;16.50;12.25;;;;;20.35;61.50;101100.25;5008746;28;45512;-75
2022/07/24 03:03:33;;;;;;;;;10.50;10.50;;;;;20.27;61.40;101091.75;4994290;28;45419;-75
2022/07/24 03:05:58;;;;;;;;;12.00;12.00;;;;;20.28;61.44;101096.16;4994473;28;45384;-75
2022/07/24 03:08:23;;;;;;;;;13.25;9.50;;;;;20.27;61.76;101089.06;4995050;28;45431;-75
2022/07/24 03:10:49;;;;;;;;;13.00;11.00;;;;;20.28;61.72;101090.78;5004482;28;45451;-75
2022/07/24 03:13:15;;;;;;;;;14.25;14.25;;;;;20.27;61.71;101080.13;4995353;28;46164;-76
2022/07/24 03:15:41;;;;;;;;;10.75;10.75;;;;;20.35;61.71;101091.34;4994107;28;45542;-76
2022/07/24 03:18:06;;;;;;;;;13.50;13.50;;;;;20.31;61.87;101087.06;4994707;28;45398;-77
2022/07/24 03:20:32;;;;;;;;;16.50;11.50;;;;;20.27;62.12;101086.38;5009402;28;45366;-76
2022/07/24 03:22:57;;;;;;;;;18.75;14.00;;;;;20.20;62.31;101074.22;4993945;28;45899;-76
2022/07/24 03:25:23;;;;;;;;;12.75;12.50;;;;;20.28;62.57;101088.09;4994180;28;45392;-76
2022/07/24 03:27:49;;;;;;;;;13.50;12.50;;;;;20.27;62.31;101090.88;4995076;28;45406;-75
2022/07/24 03:30:16;;;;;;;;;10.25;8.00;;;;;20.24;62.84;101082.03;4994571;28;45511;-75
2022/07/24 03:32:41;;;;;;;;;19.00;14.00;;;;;20.25;62.57;101096.31;4995944;28;46043;-76
2022/07/24 03:35:07;;;;;;;;;19.25;15.00;;;;;20.22;62.67;101088.41;4996063;28;45451;-77
2022/07/24 03:37:33;;;;;;;;;14.25;11.50;;;;;20.20;62.67;101096.56;4996440;28;45408;-75
2022/07/24 03:39:58;;;;;;;;;16.00;12.00;;;;;20.18;62.32;101085.03;4993747;28;45620;-76
2022/07/24 03:42:24;;;;;;;;;13.00;12.50;;;;;20.21;62.62;101092.06;4997647;28;45289;-75
2022/07/24 03:44:49;;;;;;;;;16.00;12.25;;;;;20.18;62.60;101086.88;4993137;28;45350;-76
2022/07/24 03:47:15;;;;;;;;;13.50;13.00;;;;;20.09;62.60;101076.59;4994842;28;45393;-76
2022/07/24 03:49:40;;;;;;;;;16.25;13.00;;;;;20.05;62.45;101075.88;4994169;28;45493;-77
2022/07/24 03:52:06;;;;;;;;;12.75;11.00;;;;;20.12;62.64;101092.53;4994432;28;45329;-76
2022/07/24 03:54:31;;;;;;;;;13.50;12.00;;;;;20.14;62.92;101090.66;4997024;28;45425;-76
2022/07/24 03:56:56;;;;;;;;;12.25;11.50;;;;;20.08;62.78;101091.81;4998129;28;45305;-76
2022/07/24 03:59:22;;;;;;;;;16.25;15.75;;;;;20.15;62.87;101098.63;4998092;28;45368;-75
2022/07/24 04:01:49;;;;;;;;;11.50;10.50;;;;;20.09;62.73;101084.63;4997037;28;45597;-76
2022/07/24 04:04:14;;;;;;;;;19.50;18.50;;;;;20.08;62.54;101090.97;4997975;28;45496;-75
2022/07/24 04:06:42;;;;;;;;;19.75;14.25;;;;;20.05;63.08;101090.16;5000603;28;45499;-76
2022/07/24 04:09:08;;;;;;;;;15.75;15.75;;;;;20.10;63.41;101091.75;4997215;28;45341;-77
2022/07/24 04:11:34;;;;;;;;;16.25;15.00;;;;;20.10;63.66;101086.38;4994877;28;45523;-75
2022/07/24 04:13:59;;;;;;;;;15.50;13.50;;;;;20.05;63.93;101086.63;4996827;28;45423;-76
2022/07/24 04:16:25;;;;;;;;;13.75;12.25;;;;;20.07;63.97;101090.09;4996929;28;45369;-77
2022/07/24 04:18:50;;;;;;;;;15.00;14.50;;;;;20.06;63.93;101089.22;5003802;28;45570;-76
2022/07/24 04:21:16;;;;;;;;;17.25;16.00;;;;;20.09;64.17;101104.31;5015712;28;45472;-75
2022/07/24 04:23:41;;;;;;;;;16.50;15.50;;;;;20.01;63.77;101093.97;4996969;28;45338;-76
2022/07/24 04:26:07;;;;;;;;;15.25;15.25;;;;;20.09;63.79;101106.09;4997328;28;45378;-76
2022/07/24 04:28:32;;;;;;;;;15.00;12.25;;;;;20.03;63.59;101086.69;4997468;28;45541;-76
2022/07/24 04:30:58;;;;;;;;;10.50;10.50;;;;;20.15;63.82;101100.44;4996535;28;46031;-76
2022/07/24 04:33:23;;;;;;;;;14.25;12.25;;;;;20.13;63.65;101091.59;4995846;28;45506;-76
2022/07/24 04:35:49;;;;;;;;;12.00;8.50;;;;;20.29;63.59;101100.59;4999036;28;45407;-76
2022/07/24 04:38:14;;;;;;;;;16.00;12.50;;;;;20.46;63.12;101085.41;5000243;28;45389;-76
2022/07/24 04:40:40;;;;;;;;;16.00;13.00;;;;;20.85;62.27;101097.66;5031235;28;46966;-76
2022/07/24 04:43:06;;;;;;;;;16.75;14.25;;;;;21.20;61.39;101097.50;5001967;28;45539;-75
2022/07/24 04:45:31;;;;;;;;;14.75;13.25;;;;;21.28;59.94;101052.25;4996148;28;45367;-76
2022/07/24 04:47:57;;;;;;;;;12.00;12.00;;;;;21.82;58.66;101095.72;4996345;28;45555;-75
2022/07/24 04:50:22;;;;;;;;;16.25;13.50;;;;;22.10;57.72;101083.31;5004004;28;45519;-75
2022/07/24 04:52:49;;;;;;;;;12.00;10.50;;;;;22.64;56.93;101084.56;4995708;28;45376;-77
2022/07/24 04:55:14;;;;;;;;;11.25;9.50;;;;;23.03;55.71;101086.56;4995978;28;45450;-75
2022/07/24 04:57:40;;;;;;;;;10.25;10.25;;;;;23.46;55.07;101085.59;4996426;28;45429;-75
2022/07/24 05:00:09;;;;;;;;;16.00;14.50;;;;;23.89;53.97;101080.03;4996835;28;45820;-75
2022/07/24 05:02:34;;;;;;;;;10.00;9.00;;;;;24.34;52.25;101082.38;5011766;28;45465;-75
2022/07/24 05:05:00;;;;;;;;;13.75;12.25;;;;;24.81;51.09;101069.19;4994653;28;45400;-75
2022/07/24 05:07:26;;;;;;;;;12.50;11.00;;;;;25.26;50.01;101080.28;5000076;28;45410;-76
2022/07/24 05:09:51;;;;;;;;;11.25;10.25;;;;;25.69;48.87;101077.13;5001467;28;45534;-74
2022/07/24 05:12:16;;;;;;;;;12.00;11.00;;;;;26.14;48.01;101064.72;4995846;28;45505;-75
2022/07/24 05:14:42;;;;;;;;;12.50;11.00;;;;;26.50;47.12;101051.97;4995192;28;45413;-75
2022/07/24 05:17:07;;;;;;;;;11.50;11.00;;;;;27.15;46.63;101071.16;4996600;28;45503;-75
2022/07/24 05:19:33;;;;;;;;;9.00;9.00;;;;;27.56;44.56;101072.28;4994552;28;45523;-76
2022/07/24 05:21:58;;;;;;;;;13.50;10.25;;;;;28.03;43.74;101061.13;4995478;28;45454;-75
2022/07/24 05:24:24;;;;;;;;;11.00;11.00;;;;;28.44;43.22;101075.66;4994239;28;45516;-75
2022/07/24 05:26:50;;;;;;;;;11.50;10.50;;;;;28.80;41.43;101079.72;4995306;28;45313;-75
2022/07/24 05:29:16;;;;;;;;;10.00;10.00;;;;;29.31;41.39;101068.88;4996414;28;46375;-76
2022/07/24 05:31:41;;;;;;;;;10.50;9.00;;;;;29.93;40.55;101074.94;4995626;28;45386;-75
2022/07/24 05:34:06;;;;;;;;;12.50;11.00;;;;;30.18;38.68;101065.28;4993846;28;45437;-75
2022/07/24 05:36:32;;;;;;;;;13.25;10.75;;;;;30.53;39.05;101071.09;4995505;28;45699;-76
2022/07/24 05:38:57;;;;;;;;;8.75;8.75;;;;;30.83;37.32;101062.63;4996618;28;45911;-76
2022/07/24 05:41:23;;;;;;;;;12.00;9.50;;;;;31.29;36.46;101070.84;4996672;28;45496;-76
2022/07/24 05:43:48;;;;;;;;;12.25;11.25;;;;;31.62;36.80;101068.47;4995981;28;45713;-76
2022/07/24 05:46:13;;;;;;;;;9.00;8.25;;;;;31.91;35.70;101064.63;4998759;28;45453;-75
2022/07/24 05:48:39;;;;;;;;;6.25;6.25;;;;;32.31;34.82;101068.72;5001326;28;45569;-75
2022/07/24 05:51:04;;;;;;;;;8.75;8.75;;;;;32.44;34.31;101068.25;4999493;28;45284;-76
2022/07/24 05:53:29;;;;;;;;;15.00;9.25;;;;;32.57;33.29;101059.63;4995600;28;45381;-76
2022/07/24 05:55:55;;;;;;;;;9.00;7.00;;;;;32.76;33.48;101062.13;4995199;28;45435;-75
2022/07/24 05:58:21;;;;;;;;;12.00;11.75;;;;;33.25;33.10;101066.06;4995334;28;45980;-76
2022/07/24 06:00:46;;;;;;;;;9.00;9.00;;;;;33.74;33.02;101055.22;4995022;28;45395;-76
2022/07/24 06:03:12;;;;;;;;;7.00;7.00;;;;;33.72;31.54;101061.84;4994459;28;45371;-75
2022/07/24 06:05:37;;;;;;;;;8.25;7.75;;;;;33.89;31.46;101066.34;4994060;28;45431;-77
2022/07/24 06:08:03;;;;;;;;;10.50;10.50;;;;;33.71;31.50;101071.97;4994501;28;45438;-76
2022/07/24 06:10:29;;;;;;;;;8.00;8.00;;;;;33.67;31.92;101059.63;4996245;28;45377;-77
2022/07/24 06:12:54;;;;;;;;;11.00;10.00;;;;;33.78;31.31;101036.53;5010853;28;45505;-75
2022/07/24 06:15:20;;;;;;;;;8.00;8.00;;;;;34.08;30.85;101059.63;4993217;28;45414;-75
2022/07/24 06:17:47;;;;;;;;;12.00;11.75;;;;;34.06;31.21;101058.09;4993834;28;46231;-75
2022/07/24 06:20:13;;;;;;;;;9.50;9.25;;;;;34.30;31.71;101038.03;4993643;28;45340;-75
2022/07/24 06:22:42;;;;;;;;;10.25;9.00;;;;;34.80;31.13;101053.31;4994952;28;45466;-76
2022/07/24 06:25:08;;;;;;;;;11.00;9.25;;;;;34.92;30.56;101048.25;4993977;28;45482;-76
2022/07/24 06:27:39;;;;;;;;;10.25;10.00;;;;;34.44;30.50;101045.53;4990994;28;46109;-76
2022/07/24 06:30:05;;;;;;;;;8.50;8.25;;;;;34.99;30.74;101048.41;4999342;28;45560;-78
2022/07/24 06:32:30;;;;;;;;;10.00;8.75;;;;;35.38;29.95;101031.03;5003273;28;45527;-79
2022/07/24 06:34:56;;;;;;;;;6.75;6.75;;;;;35.74;29.14;101049.63;4998431;28;45395;-79
2022/07/24 06:37:21;;;;;;;;;7.25;7.25;;;;;36.01;28.94;101050.09;4985375;28;45983;-77
2022/07/24 06:39:47;;;;;;;;;14.75;12.00;;;;;36.06;28.82;101028.38;4977238;28;45480;-77
2022/07/24 06:42:12;;;;;;;;;12.75;11.25;;;;;36.54;28.76;101045.41;4976342;28;45575;-77
2022/07/24 06:44:38;;;;;;;;;11.25;11.25;;;;;36.37;28.74;101046.69;4990564;28;45600;-77
2022/07/24 06:47:05;;;;;;;;;10.75;10.50;;;;;36.67;28.44;101032.88;4995409;28;45908;-76
2022/07/24 06:49:30;;;;;;;;;13.00;12.75;;;;;36.64;28.32;101043.22;4994247;28;45386;-77
2022/07/24 06:51:56;;;;;;;;;12.00;11.75;;;;;36.94;27.90;101037.72;4994822;28;45384;-76
2022/07/24 06:54:21;;;;;;;;;13.75;12.75;;;;;37.22;27.29;101042.47;4995148;28;45418;-76
2022/07/24 06:56:46;;;;;;;;;12.75;12.75;;;;;37.36;28.30;101037.97;5000668;28;45689;-76
2022/07/24 06:59:12;;;;;;;;;11.50;10.25;;;;;37.77;27.24;101030.97;4999818;28;45430;-75
2022/07/24 07:01:37;;;;;;;;;11.00;11.00;;;;;38.03;26.97;101031.16;4993475;28;45410;-77
2022/07/24 07:04:04;;;;;;;;;13.00;13.00;;;;;37.98;26.17;101039.19;4993377;28;45554;-78
2022/07/24 07:06:30;;;;;;;;;8.75;8.75;;;;;38.08;26.82;101029.69;4992189;28;45574;-79
2022/07/24 07:08:56;;;;;;;;;12.75;11.00;;;;;38.39;26.13;101035.66;4992115;28;45721;-76
2022/07/24 07:11:21;;;;;;;;;13.00;11.75;;;;;38.56;26.48;101027.03;4997111;28;45446;-77
2022/07/24 07:13:46;;;;;;;;;10.50;10.50;;;;;39.06;25.82;101035.97;4993372;28;45559;-77
2022/07/24 07:16:12;;;;;;;;;17.75;14.75;;;;;39.02;25.78;101033.81;5004084;28;45951;-77
2022/07/24 07:18:37;;;;;;;;;11.50;10.50;;;;;39.34;25.52;101032.22;4994209;28;45522;-76
2022/07/24 07:21:03;;;;;;;;;11.25;11.00;;;;;39.66;25.74;101026.97;4992683;28;45669;-76
2022/07/24 07:23:29;;;;;;;;;11.00;11.00;;;;;39.72;24.96;101039.09;4989365;28;45475;-78
2022/07/24 07:25:55;;;;;;;;;12.00;12.00;;;;;39.61;25.19;101035.03;4991134;28;46157;-76
2022/07/24 07:28:21;;;;;;;;;12.00;11.00;;;;;39.89;25.56;101036.72;4993190;28;45431;-77
2022/07/24 07:30:46;;;;;;;;;12.00;11.75;;;;;39.99;24.67;101026.13;4998516;28;45356;-77
2022/07/24 07:33:12;;;;;;;;;9.25;9.25;;;;;39.98;23.75;101021.63;4996621;28;45436;-80
2022/07/24 07:35:38;;;;;;;;;15.00;15.00;;;;;39.85;24.34;101028.03;4998652;28;45424;-83
2022/07/24 07:38:04;;;;;;;;;12.75;12.25;;;;;40.33;24.61;101035.22;5002590;28;45497;-77
2022/07/24 07:40:29;;;;;;;;;12.00;12.00;;;;;40.43;24.35;101032.84;4996653;28;45713;-76
2022/07/24 07:42:55;;;;;;;;;14.00;14.00;;;;;40.41;23.99;101029.44;4996678;28;45431;-76
2022/07/24 07:45:20;;;;;;;;;12.25;11.00;;;;;40.31;23.99;101016.06;5011736;28;46267;-77
2022/07/24 07:47:45;;;;;;;;;14.00;14.00;;;;;40.33;24.05;101029.69;5002697;28;45395;-78
2022/07/24 07:50:11;;;;;;;;;13.50;13.50;;;;;40.18;23.96;101020.75;4998661;28;45645;-77
2022/07/24 07:52:37;;;;;;;;;13.50;13.00;;;;;40.13;24.72;101022.28;4997603;28;45360;-77
2022/07/24 07:55:04;;;;;;;;;9.75;9.75;;;;;39.65;24.47;101021.63;4995313;28;46234;-77
2022/07/24 07:57:29;;;;;;;;;13.50;11.75;;;;;39.77;25.25;101026.34;5007231;28;45427;-77
2022/07/24 07:59:54;;;;;;;;;12.50;11.50;;;;;40.07;23.96;101025.91;5002322;28;45344;-77
2022/07/24 08:02:20;;;;;;;;;11.25;11.25;;;;;40.13;24.12;101025.06;4995524;28;45470;-77
2022/07/24 08:04:45;;;;;;;;;14.75;13.50;;;;;40.23;24.20;101018.22;5011449;28;46780;-77
2022/07/24 08:07:10;;;;;;;;;12.25;11.75;;;;;40.56;24.32;101022.81;4994609;28;45614;-78
2022/07/24 08:09:37;;;;;;;;;9.75;9.50;;;;;40.90;23.50;101018.00;4994929;28;45530;-78
2022/07/24 08:12:03;;;;;;;;;12.00;12.00;;;;;40.73;23.49;101007.41;4995073;28;45540;-78
2022/07/24 08:14:29;;;;;;;;;13.75;11.75;;;;;40.62;23.75;101019.19;4996003;28;45407;-77
2022/07/24 08:16:54;;;;;;;;;12.25;11.25;;;;;40.71;24.15;101015.09;4995472;28;45454;-77
2022/07/24 08:19:19;;;;;;;;;12.50;11.00;;;;;40.82;22.88;101005.25;5018755;28;45414;-78
2022/07/24 08:21:46;;;;;;;;;9.00;9.00;;;;;40.58;23.76;101007.69;5032680;28;45582;-76
2022/07/24 08:24:12;;;;;;;;;10.00;9.00;;;;;40.71;23.96;100997.63;5014374;28;45505;-76
2022/07/24 08:26:38;;;;;;;;;10.75;10.75;;;;;40.66;23.34;101018.53;5006055;28;45379;-78
2022/07/24 08:29:04;;;;;;;;;13.00;12.00;;;;;40.79;23.30;101011.22;4997632;28;45420;-79
2022/07/24 08:31:29;;;;;;;;;10.75;10.75;;;;;40.75;23.23;101010.78;4997325;28;45488;-78
2022/07/24 08:33:55;;;;;;;;;13.00;11.50;;;;;40.71;24.29;100995.72;4995619;28;46126;-79
2022/07/24 08:36:20;;;;;;;;;8.25;8.25;;;;;41.18;22.87;101009.28;4995640;28;45454;-78
2022/07/24 08:38:46;;;;;;;;;11.00;11.00;;;;;41.28;23.13;101008.81;4995340;28;45411;-78
2022/07/24 08:41:13;;;;;;;;;8.25;7.50;;;;;41.57;23.02;101006.50;4996131;28;45371;-77
2022/07/24 08:43:38;;;;;;;;;10.00;10.00;;;;;41.58;22.16;101002.66;5011700;28;46123;-78
2022/07/24 08:46:07;;;;;;;;;10.50;10.50;;;;;41.28;22.05;101006.88;4990544;28;45424;-78
2022/07/24 08:48:33;;;;;;;;;10.50;10.00;;;;;41.13;21.67;100996.09;4990582;28;45451;-77
2022/07/24 08:50:59;;;;;;;;;13.25;10.25;;;;;41.24;22.46;101002.88;4997272;28;45333;-78
2022/07/24 08:53:24;;;;;;;;;7.75;7.75;;;;;41.45;22.13;100982.25;4997859;28;45441;-77
2022/07/24 08:55:50;;;;;;;;;10.25;10.25;;;;;41.98;22.91;100986.47;4995332;28;45364;-79
2022/07/24 08:58:15;;;;;;;;;8.25;8.00;;;;;42.00;21.30;100984.34;5002862;28;45633;-78
2022/07/24 09:00:41;;;;;;;;;7.75;7.75;;;;;41.62;21.21;100970.59;4998890;28;45407;-79
2022/07/24 09:03:08;;;;;;;;;8.50;8.50;;;;;41.31;21.28;100969.59;4997309;28;45390;-78
2022/07/24 09:05:51;;;;;;;;;9.75;9.00;;;;;40.93;21.69;100973.25;4993756;28;45387;-78
2022/07/24 09:08:16;;;;;;;;;9.25;9.25;;;;;41.00;21.01;100980.44;4995521;28;45383;-76
2022/07/24 09:11:04;;;;;;;;;8.00;7.25;;;;;41.38;21.88;100964.84;4995604;28;45320;-77
2022/07/24 09:14:29;;;;;;;;;10.00;10.00;;;;;41.46;21.94;100966.50;4995032;28;45531;-77
2022/07/24 09:16:22;;;;;;;;;8.75;8.75;;;;;41.68;20.87;100953.91;4995023;28;45431;-77
2022/07/24 09:18:49;;;;;;;;;6.50;6.25;;;;;41.31;20.37;100961.28;5010127;28;45462;-76
2022/07/24 09:21:17;;;;;;;;;8.00;8.00;;;;;40.90;21.05;100973.69;5017432;28;45596;-77
2022/07/24 09:23:44;;;;;;;;;6.50;6.00;;;;;40.95;20.92;100960.88;5018096;28;45481;-79
2022/07/24 09:26:10;;;;;;;;;7.75;7.75;;;;;41.11;20.60;100953.94;5010113;28;45388;-80
2022/07/24 09:28:53;;;;;;;;;10.50;9.25;;;;;41.31;21.53;100947.41;4996247;28;45491;-80
2022/07/24 09:31:22;;;;;;;;;6.00;5.25;;;;;41.74;20.86;100952.16;4997426;28;45493;-80
2022/07/24 09:33:47;;;;;;;;;7.25;7.25;;;;;41.61;20.58;100947.56;4996875;28;46178;-78
2022/07/24 09:36:14;;;;;;;;;9.25;8.75;;;;;41.90;20.69;100940.47;5011928;28;45542;-79
2022/07/24 09:38:47;;;;;;;;;5.00;5.00;;;;;41.48;19.45;100945.75;5003788;28;45455;-79
2022/07/24 09:41:19;;;;;;;;;5.75;5.00;;;;;41.25;20.85;100932.50;4996324;28;45457;-80
2022/07/24 09:43:44;;;;;;;;;6.75;6.00;;;;;41.57;20.70;100939.94;5009942;28;45429;-79
2022/07/24 09:46:12;;;;;;;;;7.75;7.25;;;;;41.62;20.18;100931.78;4996981;28;45458;-80
2022/07/24 09:48:56;;;;;;;;;6.25;5.25;;;;;41.82;18.99;100921.38;4994452;28;45431;-78
2022/07/24 09:51:23;;;;;;;;;10.50;10.50;;;;;41.66;20.34;100921.94;4994740;28;45432;-79
2022/07/24 09:53:56;;;;;;;;;5.25;5.25;;;;;41.81;20.48;100922.44;4996080;28;46591;-78
2022/07/24 09:56:22;;;;;;;;;8.25;7.00;;;;;41.74;20.25;100918.88;4996725;28;45367;-80
2022/07/24 09:58:54;;;;;;;;;6.25;5.50;;;;;42.17;19.68;100917.16;4998994;28;45415;-78
2022/07/24 10:01:24;;;;;;;;;7.00;7.00;;;;;42.07;19.53;100917.66;4996213;28;45353;-77
2022/07/24 10:03:51;;;;;;;;;4.75;4.75;;;;;42.12;18.80;100915.03;4995622;28;45639;-77
2022/07/24 10:06:22;;;;;;;;;5.00;5.00;;;;;42.18;18.98;100911.38;4997260;28;45375;-77
2022/07/24 10:08:50;;;;;;;;;6.50;6.50;;;;;42.00;20.42;100911.34;4989681;28;45367;-77
2022/07/24 10:11:16;;;;;;;;;6.00;5.75;;;;;42.12;19.46;100914.19;5008987;28;45382;-77
2022/07/24 10:13:43;;;;;;;;;5.75;5.75;;;;;41.87;18.68;100921.50;4993269;28;45429;-80
2022/07/24 10:16:29;;;;;;;;;8.00;8.00;;;;;41.33;19.92;100909.22;4994182;28;45362;-78
2022/07/24 10:18:54;;;;;;;;;5.00;4.75;;;;;41.33;19.17;100912.00;4994265;28;45616;-78
2022/07/24 10:21:21;;;;;;;;;10.25;9.25;;;;;41.43;19.83;100911.50;4995064;28;45461;-76
2022/07/24 10:24:10;;;;;;;;;6.00;5.75;;;;;41.36;18.74;100911.53;4994695;28;45528;-78
2022/07/24 10:26:37;;;;;;;;;4.25;3.25;;;;;41.05;18.61;100910.50;4998105;28;45379;-78
2022/07/24 10:29:10;;;;;;;;;5.00;5.00;;;;;40.35;19.40;100908.53;4997283;28;45599;-77
2022/07/24 10:31:37;;;;;;;;;4.00;3.50;;;;;40.08;20.00;100905.88;4995962;28;45573;-76
2022/07/24 10:34:14;;;;;;;;;4.75;4.75;;;;;40.02;20.58;100900.38;4994598;28;45868;-79
2022/07/24 10:36:49;;;;;;;;;7.50;5.75;;;;;40.56;20.36;100906.53;4995489;28;45409;-78
2022/07/24 10:39:29;;;;;;;;;8.25;7.00;;;;;40.58;19.67;100898.88;4997057;28;45289;-76
2022/07/24 10:42:03;;;;;;;;;6.75;6.75;;;;;40.56;21.03;100895.47;5017084;28;45368;-76
2022/07/24 10:44:29;;;;;;;;;5.50;5.50;;;;;40.87;20.20;100891.03;4993226;28;46118;-77
2022/07/24 10:47:00;;;;;;;;;8.00;7.00;;;;;40.75;18.74;100883.41;4991967;28;45477;-77
2022/07/24 10:49:35;;;;;;;;;3.75;3.50;;;;;40.73;19.63;100885.56;4995578;28;45324;-78
2022/07/24 10:52:00;;;;;;;;;5.00;5.00;;;;;40.56;19.51;100887.16;4994155;28;45353;-78
2022/07/24 10:54:26;;;;;;;;;3.00;2.50;;;;;39.61;19.85;100880.25;4993382;28;46149;-77
2022/07/24 10:56:51;;;;;;;;;3.25;3.00;;;;;39.08;20.95;100881.94;4992843;28;45576;-78
2022/07/24 10:59:41;;;;;;;;;7.75;6.75;;;;;38.80;20.79;100870.22;4995980;28;45681;-78
2022/07/24 11:02:29;;;;;;;;;7.50;7.50;;;;;38.41;21.69;100866.28;4991417;28;45480;-78
2022/07/24 11:05:31;;;;;;;;;6.25;5.25;;;;;38.68;22.08;100859.78;4990457;28;46106;-78
2022/07/24 11:08:16;;;;;;;;;6.00;6.00;;;;;38.61;21.58;100864.41;4932060;28;45753;-77
2022/07/24 11:10:45;;;;;;;;;6.25;5.50;;;;;38.24;22.07;100863.06;4935587;28;45483;-77
2022/07/24 11:13:39;;;;;;;;;5.25;5.00;;;;;38.37;21.85;100857.56;4918983;28;45586;-78